Airfield :
LOGIN :

Register | Disclaimer

   EN    FR    IT 

 










Legend :    VFR   Marginal VFR   IFR   Intensive IFR   Very Intensive IFR
Visi :
Ceiling :
>= 8 km
>= 3000ft
5 to 8 km
1000 to 3000 ft
1500m to 5 km
500 to 1000 ft
800 to 1500m
200 to 500 ft
< 800m
< 200 ft
Symbols :   Thunderstorms  Fog  Heavy snow  Heavy precipitations  Wind > 20 kt
SIGMETs :     Misc.  Thunderstorms  Icing  Turbulence  Mountain Waves  Volcanic Ashes







- Airport Elevation : 10 ft
- IATA code : MOL


ENML - Molde

CURRENT METAR :
  • 211720Z 02007KT 9999 -DZ FEW005 SCT010 BKN015 04/04 Q1019

EXPIRED METARs :
  • 211650Z 02005KT 9999 -RA FEW005 SCT010 BKN015 05/03 Q1019
  • 211620Z 02004KT 9999 -RA FEW005 SCT010 BKN015 05/03 Q1019
  • 211550Z 35003KT 320V030 9999 DZRA BKN016 05/04 Q1018
  • 211520Z 02004KT 5000 RADZ BKN017 05/04 Q1017
  • 211450Z 36004KT 7000 3000E DZRA OVC017 05/04 Q1017

TAF TAF ENML
Valid from the 21 at 15:00 until the 21 at 22:00 UTC


211400Z 2115/2122 VRB05KT 9000 -DZRA FEW008 BKN018
TEMPO 2115/2119 4000 DZRA BKN008
No reported NOTAMs for that airfield.



MET'MAP, your aeronautical weather chart ! - Copyright ORBIFLY December 2007 - Disclaimer

ORBIFLY MET'MAP TEAM :

Programming & Development : Alexandra Zaïnal
Concept & Development : Baudouin d'Aumeries
Co-Development & Prog : Marc-Olivier Méhu
Technical & hardware support : Manuel Goepfert

Contact : metmap@orbifly.com




SOURCES & CREDITS :

   NOAA